Dayton, OH (45432)

10:57 PM EST on February 11, 2016 (GMT -0500)
Beavercreek | | Change Station
CLOSE
Current Station
Personal Weather Station
Location: Beavercreek, OH
Elevation: 942 ft
Nearby Weather Stations

Elev 942 ft 39.74 °N, 84.08 °W | Updated 7 seconds ago

Mostly Cloudy
Mostly Cloudy
14.1 °F
Feels Like 14 °F
N
0.0
Wind Variable Wind from West
Gusts 0.0 mph

Today
High -- | Low -- °F
--% Chance of Precip.
Yesterday
High -- | Low -- °F
Precip. -- in
Pressure 30.35 in
Visibility 10.0 miles
Clouds Few 10000 ft
Windchill 14 °F
Dew Point 7 °F
Humidity 73%
Rainfall 0.00 in
Snow Depth Not available.
7:34 AM 6:07 PM
Waxing Crescent, 17% visible
METAR KFFO 120258Z 20002KT 10SM FEW100 M10/M14 A3029 RMK AO2A SLP276 T10991144 58001
Pressure 30.35 in
Visibility 10.0 miles
Clouds Few 10000 ft
Windchill 14 °F
Dew Point 7 °F
Humidity 73%
Rainfall 0.00 in
Snow Depth Not available.
7:34 AM 6:07 PM
Waxing Crescent, 17% visible
METAR KFFO 120258Z 20002KT 10SM FEW100 M10/M14 A3029 RMK AO2A SLP276 T10991144 58001

10-Day Weather Forecast

Almanac

Astronomy

Feb. 11, 2016 Rise Set
Actual Time
Civil Twilight
Nautical Twilight
Astronomical Twilight
Moon
Length of Visible Light
Length of Day
Tomorrow will be .
, % of the Moon is Illuminated

Today's Extremes

State Highs State Lows

Community

WunderPhotos

Upload Photos

1,892,254 photos uploaded!

WunderBlog® & News

Nearby

Air Quality

  Air Quality AQ Index Pollutant
Not available.

Snow Depth

Station Depth Elevation

Earthquake Activity

City Distance Mag. Time & Date
Minimum magnitude displayed is 2.5.

Coastal Water Temperatures

Place Temperature

Stations

Nearby Weather Stations

Station Location Temp. Windchill Dew Point Humidity Wind Precip. Elev Updated Type
                   

Watches & Warnings

There are currently no watches in effect.